createdAt,value
2018-10-02T00:01:28.879Z,12.27
2018-10-02T00:06:32.531Z,10.53
2018-10-02T00:11:41.741Z,11.13
2018-10-02T00:16:54.333Z,11.13
2018-10-02T00:21:58.323Z,10.37
2018-10-02T00:27:02.423Z,12.60
2018-10-02T00:32:06.257Z,11.03
2018-10-02T00:37:10.878Z,9.30
2018-10-02T00:42:14.595Z,8.80
2018-10-02T00:47:18.258Z,8.73
2018-10-02T00:52:22.110Z,10.83
2018-10-02T00:57:25.829Z,9.50
2018-10-02T01:02:29.884Z,9.97
2018-10-02T01:07:33.725Z,8.53
2018-10-02T01:12:37.858Z,11.63
2018-10-02T01:17:41.578Z,11.60
2018-10-02T01:22:45.702Z,10.80
2018-10-02T01:27:49.438Z,7.17
2018-10-02T01:32:53.580Z,8.37
2018-10-02T01:37:57.312Z,6.30
2018-10-02T01:43:01.148Z,8.23
2018-10-02T01:48:04.915Z,11.47
2018-10-02T01:53:08.618Z,7.80
2018-10-02T01:58:12.277Z,7.10
2018-10-02T02:03:15.869Z,7.50
2018-10-02T02:08:19.517Z,8.33
2018-10-02T02:13:25.710Z,7.67
2018-10-02T02:18:29.610Z,8.83
2018-10-02T02:23:33.341Z,6.97
2018-10-02T02:28:37.213Z,7.87
2018-10-02T02:33:41.006Z,5.63
2018-10-02T02:38:45.123Z,9.63
2018-10-02T02:43:49.321Z,8.83
2018-10-02T02:49:00.255Z,7.03
2018-10-02T02:54:04.530Z,7.63
2018-10-02T02:59:08.703Z,7.40
2018-10-02T03:04:12.649Z,6.33
2018-10-02T03:09:32.123Z,5.30
2018-10-02T03:14:36.237Z,7.20
2018-10-02T03:19:39.922Z,6.87
2018-10-02T03:24:43.491Z,5.93
2018-10-02T03:29:47.419Z,6.83
2018-10-02T03:34:51.169Z,6.03
2018-10-02T03:39:54.836Z,7.17
2018-10-02T03:45:05.963Z,6.47
2018-10-02T03:50:09.889Z,7.33
2018-10-02T03:55:13.639Z,7.27
2018-10-02T04:00:17.760Z,5.50
2018-10-02T04:05:22.131Z,7.70
2018-10-02T04:10:26.106Z,9.43
2018-10-02T04:15:29.992Z,6.77
2018-10-02T04:20:34.172Z,7.47
2018-10-02T04:25:37.969Z,9.67
2018-10-02T04:30:42.111Z,8.17
2018-10-02T04:35:46.570Z,9.47
2018-10-02T04:40:51.268Z,9.17
2018-10-02T04:45:55.413Z,6.70
2018-10-02T04:50:59.453Z,9.10
2018-10-02T04:56:03.540Z,7.87
2018-10-02T05:01:07.190Z,4.57
2018-10-02T05:06:20.779Z,5.20
2018-10-02T05:11:24.998Z,6.13
2018-10-02T05:16:29.384Z,7.57
2018-10-02T05:21:33.620Z,9.47
2018-10-02T05:26:37.640Z,10.73
2018-10-02T05:31:41.723Z,9.67
2018-10-02T05:36:46.366Z,6.60
2018-10-02T05:41:50.581Z,8.43
2018-10-02T05:46:54.545Z,7.73
2018-10-02T05:51:58.353Z,10.63
2018-10-02T05:57:08.453Z,8.97
2018-10-02T06:02:13.311Z,9.57
2018-10-02T06:07:17.406Z,5.97
2018-10-02T06:12:21.959Z,7.63
2018-10-02T06:17:26.068Z,6.93
2018-10-02T06:22:30.539Z,8.67
2018-10-02T06:27:34.773Z,9.67
2018-10-02T06:32:38.406Z,9.63
2018-10-02T06:37:42.075Z,7.53
2018-10-02T06:42:46.210Z,9.30
2018-10-02T06:48:12.253Z,8.53
2018-10-02T06:53:15.931Z,6.37
2018-10-02T06:58:39.520Z,7.40
2018-10-02T07:03:43.251Z,7.00
2018-10-02T07:08:46.997Z,6.93
2018-10-02T07:13:50.904Z,8.70
2018-10-02T07:18:55.168Z,8.80
2018-10-02T07:23:59.023Z,6.50
2018-10-02T07:29:03.127Z,7.83
2018-10-02T07:34:06.886Z,4.80
2018-10-02T07:39:10.941Z,6.80
2018-10-02T07:44:14.980Z,7.80
2018-10-02T07:49:19.067Z,5.10
2018-10-02T07:54:23.208Z,8.47
2018-10-02T07:59:33.493Z,7.43
2018-10-02T08:04:37.627Z,6.63
2018-10-02T08:09:41.682Z,7.10
2018-10-02T08:14:52.425Z,7.43
2018-10-02T08:19:56.153Z,5.80
2018-10-02T08:24:59.778Z,6.00
2018-10-02T08:30:03.906Z,7.30
2018-10-02T08:35:08.458Z,5.80
2018-10-02T08:40:12.214Z,6.80
2018-10-02T08:45:16.231Z,6.57
2018-10-02T08:50:20.073Z,7.60
2018-10-02T08:55:24.075Z,8.77
2018-10-02T09:00:28.189Z,5.20
2018-10-02T09:05:31.822Z,8.10
2018-10-02T09:10:36.364Z,6.13
2018-10-02T09:15:40.358Z,6.07
2018-10-02T09:20:44.505Z,5.90
2018-10-02T09:25:48.228Z,6.53
2018-10-02T09:30:57.512Z,7.97
2018-10-02T09:36:06.435Z,9.57
2018-10-02T09:41:15.993Z,7.37
2018-10-02T09:46:20.482Z,6.10
2018-10-02T09:51:24.676Z,6.80
2018-10-02T09:56:33.688Z,7.70
2018-10-02T10:01:42.682Z,7.47
2018-10-02T10:06:46.342Z,9.20
2018-10-02T10:11:50.294Z,7.33
2018-10-02T10:16:58.456Z,8.40
2018-10-02T10:22:02.713Z,5.10
2018-10-02T10:27:07.091Z,3.70
2018-10-02T10:32:11.229Z,3.33
2018-10-02T10:37:14.836Z,3.57
2018-10-02T10:42:18.870Z,2.50
2018-10-02T10:47:23.224Z,3.20
2018-10-02T10:52:27.343Z,3.10
2018-10-02T10:57:31.155Z,2.93
2018-10-02T11:02:35.177Z,1.97
2018-10-02T11:07:44.726Z,1.73
2018-10-02T11:12:49.143Z,1.93
2018-10-02T11:17:53.128Z,2.03
2018-10-02T11:22:56.925Z,1.93
2018-10-02T11:28:01.357Z,1.63
2018-10-02T11:33:05.377Z,2.37
2018-10-02T11:38:09.078Z,2.20
2018-10-02T11:43:13.426Z,2.50
2018-10-02T11:48:17.325Z,2.53
2018-10-02T11:53:21.249Z,2.80
2018-10-02T11:58:25.075Z,2.10
2018-10-02T12:03:28.718Z,2.70
2018-10-02T12:08:32.724Z,3.10
2018-10-02T12:13:36.574Z,3.90
2018-10-02T12:18:50.268Z,4.67
2018-10-02T12:23:54.480Z,4.17
2018-10-02T12:29:07.699Z,3.67
2018-10-02T12:34:11.688Z,3.40
2018-10-02T12:39:20.938Z,3.27
2018-10-02T12:44:24.950Z,4.30
2018-10-02T12:49:28.524Z,4.40
2018-10-02T12:54:33.059Z,4.17
2018-10-02T12:59:37.095Z,4.47
2018-10-02T13:04:41.894Z,4.67
2018-10-02T13:09:45.995Z,6.70
2018-10-02T13:14:49.882Z,5.50
2018-10-02T13:19:54.209Z,8.17
2018-10-02T13:24:58.109Z,9.83
2018-10-02T13:30:01.809Z,10.50
2018-10-02T13:35:06.333Z,11.40
2018-10-02T13:40:09.911Z,13.40
2018-10-02T13:45:13.855Z,15.10
2018-10-02T13:50:17.460Z,17.47
2018-10-02T13:55:21.752Z,19.03
2018-10-02T14:00:25.405Z,19.73
2018-10-02T14:05:28.944Z,21.17
2018-10-02T14:10:32.800Z,21.23
2018-10-02T14:15:36.858Z,21.77
2018-10-02T14:20:40.484Z,21.47
2018-10-02T14:25:44.885Z,23.13
2018-10-02T14:30:49.092Z,25.70
2018-10-02T14:35:53.107Z,24.80
2018-10-02T14:40:56.958Z,25.83
2018-10-02T14:46:00.926Z,25.83
2018-10-02T14:51:04.594Z,25.83
2018-10-02T14:56:08.532Z,24.27
2018-10-02T15:01:12.181Z,24.00
2018-10-02T15:06:15.968Z,24.37
2018-10-02T15:11:19.712Z,23.93
2018-10-02T15:16:23.676Z,23.20
2018-10-02T15:21:27.972Z,26.10
2018-10-02T15:26:31.761Z,22.63
2018-10-02T15:31:35.830Z,22.23
2018-10-02T15:36:39.622Z,21.30
2018-10-02T15:41:43.754Z,22.70
2018-10-02T15:46:47.567Z,17.93
2018-10-02T15:51:51.228Z,17.07
2018-10-02T15:56:55.019Z,18.13
2018-10-02T16:01:59.196Z,17.57
2018-10-02T16:07:03.531Z,17.97
2018-10-02T16:12:07.135Z,14.63
2018-10-02T16:17:11.848Z,16.07
2018-10-02T16:22:15.976Z,15.93
2018-10-02T16:27:19.801Z,18.50
2018-10-02T16:32:23.592Z,18.33
2018-10-02T16:37:27.242Z,18.50
2018-10-02T16:42:31.359Z,18.30
2018-10-02T16:47:35.106Z,17.23
2018-10-02T16:52:38.820Z,19.33
2018-10-02T16:57:43.936Z,17.07
2018-10-02T17:02:48.107Z,17.30
2018-10-02T17:07:52.235Z,16.13
2018-10-02T17:12:56.234Z,12.67
2018-10-02T17:17:59.971Z,10.23
2018-10-02T17:23:03.737Z,10.80
2018-10-02T17:28:07.612Z,8.77
2018-10-02T17:33:11.928Z,9.40
2018-10-02T17:38:16.047Z,6.17
2018-10-02T17:43:19.900Z,6.77
2018-10-02T17:48:24.210Z,7.70
2018-10-02T17:53:27.975Z,6.33
2018-10-02T17:58:31.611Z,6.30
2018-10-02T18:03:35.967Z,5.70
2018-10-02T18:08:39.893Z,6.60
2018-10-02T18:13:43.553Z,9.13
2018-10-02T18:18:47.773Z,8.40
2018-10-02T18:23:51.777Z,14.03
2018-10-02T18:29:17.659Z,7.93
2018-10-02T18:34:21.456Z,6.83
2018-10-02T18:39:47.549Z,11.33
2018-10-02T18:44:51.599Z,8.83
2018-10-02T18:49:55.315Z,10.00
2018-10-02T18:54:59.016Z,10.47
2018-10-02T19:00:02.713Z,8.33
2018-10-02T19:05:06.814Z,11.77
2018-10-02T19:10:10.829Z,11.83
2018-10-02T19:15:14.903Z,7.33
2018-10-02T19:20:24.315Z,7.63
2018-10-02T19:25:33.957Z,10.70
2018-10-02T19:30:43.200Z,8.93
2018-10-02T19:35:47.074Z,8.90
2018-10-02T19:40:50.940Z,8.07
2018-10-02T19:46:00.435Z,8.13
2018-10-02T19:51:09.259Z,7.40
2018-10-02T19:56:13.250Z,9.50
2018-10-02T20:01:17.016Z,11.23
2018-10-02T20:06:21.636Z,9.10
2018-10-02T20:11:25.399Z,7.80
2018-10-02T20:16:29.503Z,10.03
2018-10-02T20:21:43.224Z,10.40
2018-10-02T20:26:47.152Z,12.40
2018-10-02T20:31:51.895Z,12.27
2018-10-02T20:36:55.753Z,10.47
2018-10-02T20:41:59.979Z,8.17
2018-10-02T20:47:03.921Z,10.97
2018-10-02T20:52:08.036Z,7.83
2018-10-02T20:57:11.714Z,6.57
2018-10-02T21:02:15.718Z,7.57
2018-10-02T21:07:19.362Z,10.07
2018-10-02T21:12:23.408Z,7.70
2018-10-02T21:17:27.344Z,8.63
2018-10-02T21:22:31.347Z,8.27
2018-10-02T21:27:35.113Z,9.03
2018-10-02T21:32:39.172Z,9.27
2018-10-02T21:37:49.082Z,9.07
2018-10-02T21:42:53.519Z,8.80
2018-10-02T21:47:57.999Z,8.03
2018-10-02T21:53:02.140Z,5.93
2018-10-02T21:58:09.445Z,7.20
2018-10-02T22:03:13.668Z,8.20
2018-10-02T22:08:22.288Z,9.03
2018-10-02T22:13:26.672Z,11.20
2018-10-02T22:18:30.676Z,10.57
2018-10-02T22:23:34.337Z,11.33
2018-10-02T22:28:38.904Z,10.07
2018-10-02T22:33:43.257Z,12.83
2018-10-02T22:38:46.930Z,12.07
2018-10-02T22:43:51.021Z,13.17
2018-10-02T22:48:55.169Z,10.40
2018-10-02T22:54:02.834Z,9.37
2018-10-02T22:59:07.008Z,10.67
2018-10-02T23:04:10.782Z,10.57
2018-10-02T23:09:14.872Z,9.00
2018-10-02T23:14:18.716Z,12.97
2018-10-02T23:19:22.487Z,10.87
2018-10-02T23:24:26.606Z,10.60
2018-10-02T23:29:30.311Z,8.43
2018-10-02T23:34:34.689Z,11.47
2018-10-02T23:39:42.622Z,10.47
2018-10-02T23:44:46.392Z,11.37
2018-10-02T23:49:50.316Z,12.23
2018-10-02T23:54:54.129Z,12.20
2018-10-02T23:59:58.201Z,12.30
